KBILKGGW

Guest
Details From KBIL - Billings Logan Intl
To KGGW - Wokal Fld Glasgow Intl
Flight Number -
Tags Generated
Created
Modified
Stats Distance 165 nm / 306 km
Max Altitude 0 ft / 0 m
Waypoints 2
Social Downloads 1
Likes 0
Share VATSIM

Download

Looking for another format? Having issues loading an existing format? Contact us
Advertisement - Login to hide

Notes

Generated

Route

KBIL KGGW

ID Type Via Altitude Latitude Longitude Leg Dist Tot Dist Heading (true) Name
O KBIL APT - 0 ft / 0 m 45.80919˚ -108.56282˚ - 0 nm - -
O KGGW APT - 0 ft / 0 m 48.21284˚ -106.59991˚ 165 nm 165 nm 28° / 30° Wokal Fld Glasgow Intl

Altitude Profile

Advertisement - Login to hide

Weather


0- 5 10 15 20 25 30 35+ Temperature / ° C

Clouds and Precipitation
Forecast for 2018-05-20 18:00 UTC. Updated an hour ago

Ground ~20,000 ft ~40,000 ft Winds

KBIL

Details ICAO KBIL (BIL)
Name Billings Logan Intl
Region United States
Timezone America/Denver (UTC-6.0)
Stats Elevation 3,652 ft / 1,113 m (AMSL)
Location 45.807706° -108.546410°
Runways 3
Magnetic Variation 10.642° E

METAR

KBIL 201553Z 00000KT 10SM FEW015 FEW200 14/07 A3010 RMK AO2 SLP183 T01390072

Decode

TAF

KBIL 201133Z 2012/2112 VRB05KT P6SM FEW045 FM201700 10010KT P6SM FEW090 SCT200 FM210700 22007KT P6SM SCT120

Decode

Departure Runways

ID Width Length Bearing (true) Bearing (mag) Surface Threshold Offset Overrun Length
07 75 ft / 23 m 5,486 ft / 1,672 m 83.96° 73.32° Asphalt 0 ft / 0 m 0 ft / 0 m
10L 150 ft / 46 m 10,493 ft / 3,198 m 111.77° 101.13° Asphalt 0 ft / 0 m 1,000 ft / 305 m
10R 75 ft / 23 m 3,792 ft / 1,156 m 111.71° 101.07° Asphalt 0 ft / 0 m 0 ft / 0 m
25 75 ft / 23 m 5,486 ft / 1,672 m 263.97° 253.33° Asphalt 0 ft / 0 m 0 ft / 0 m
28L 75 ft / 23 m 3,792 ft / 1,156 m 291.72° 281.08° Asphalt 0 ft / 0 m 0 ft / 0 m
28R 150 ft / 46 m 10,493 ft / 3,198 m 291.80° 281.16° Asphalt 0 ft / 0 m 1,000 ft / 305 m

KGGW

Details ICAO KGGW (GGW)
Name Wokal Fld Glasgow Intl
Region United States
Timezone America/Denver (UTC-6.0)
Stats Elevation 2,294 ft / 699 m (AMSL)
Location 48.212244° -106.602046°
Runways 2
Magnetic Variation 9.856° E

METAR

KGGW 201553Z AUTO 15019G26KT 10SM CLR 17/04 A3011 RMK AO2 PK WND 15029/1516 SLP199 T01670039

Decode

TAF

KGGW 201134Z 2012/2112 10009KT P6SM SKC FM201400 14015G25KT P6SM SKC FM210200 12010KT P6SM FEW150 SCT250

Decode

Destination Runways

ID Width Length Bearing (true) Bearing (mag) Surface Threshold Offset Overrun Length
08 75 ft / 23 m 4,986 ft / 1,520 m 89.98° 80.12° Asphalt 0 ft / 0 m 1,345 ft / 410 m
12 100 ft / 30 m 4,995 ft / 1,522 m 134.08° 124.22° Asphalt 0 ft / 0 m 900 ft / 274 m
26 75 ft / 23 m 4,986 ft / 1,520 m 270.00° 260.14° Asphalt 0 ft / 0 m 0 ft / 0 m
30 100 ft / 30 m 4,995 ft / 1,522 m 314.09° 304.23° Asphalt 0 ft / 0 m 0 ft / 0 m

Popular Alternatives